sensor_id;sensor_type;location;lat;lon;timestamp;P1;durP1;ratioP1;P2;durP2;ratioP2
74900;SDS011;63461;51.416;6.758;2023-09-19T00:00:42;12.82;;;1.98;;
74900;SDS011;63461;51.416;6.758;2023-09-19T00:03:09;9.65;;;1.60;;
74900;SDS011;63461;51.416;6.758;2023-09-19T00:05:37;9.15;;;1.98;;
74900;SDS011;63461;51.416;6.758;2023-09-19T00:08:03;12.30;;;2.28;;
74900;SDS011;63461;51.416;6.758;2023-09-19T00:10:30;7.38;;;1.80;;
74900;SDS011;63461;51.416;6.758;2023-09-19T00:13:00;10.63;;;1.90;;
74900;SDS011;63461;51.416;6.758;2023-09-19T00:15:35;9.85;;;1.92;;
74900;SDS011;63461;51.416;6.758;2023-09-19T00:18:03;7.03;;;1.90;;
74900;SDS011;63461;51.416;6.758;2023-09-19T00:20:31;8.98;;;2.10;;
74900;SDS011;63461;51.416;6.758;2023-09-19T00:23:00;7.20;;;1.80;;
74900;SDS011;63461;51.416;6.758;2023-09-19T00:25:33;11.20;;;2.00;;
74900;SDS011;63461;51.416;6.758;2023-09-19T00:28:03;10.15;;;1.95;;
74900;SDS011;63461;51.416;6.758;2023-09-19T00:30:29;8.68;;;1.55;;
74900;SDS011;63461;51.416;6.758;2023-09-19T00:32:55;12.82;;;1.90;;
74900;SDS011;63461;51.416;6.758;2023-09-19T00:35:22;8.43;;;1.90;;
74900;SDS011;63461;51.416;6.758;2023-09-19T00:37:51;11.32;;;1.95;;
74900;SDS011;63461;51.416;6.758;2023-09-19T00:40:17;10.68;;;1.88;;
74900;SDS011;63461;51.416;6.758;2023-09-19T00:42:47;6.70;;;1.80;;
74900;SDS011;63461;51.416;6.758;2023-09-19T00:45:14;9.68;;;2.03;;
74900;SDS011;63461;51.416;6.758;2023-09-19T00:47:44;13.52;;;1.88;;
74900;SDS011;63461;51.416;6.758;2023-09-19T00:50:14;11.88;;;2.20;;
74900;SDS011;63461;51.416;6.758;2023-09-19T00:52:42;8.23;;;1.95;;
74900;SDS011;63461;51.416;6.758;2023-09-19T00:55:10;11.10;;;1.73;;
74900;SDS011;63461;51.416;6.758;2023-09-19T00:57:39;11.68;;;2.00;;
74900;SDS011;63461;51.416;6.758;2023-09-19T01:00:06;11.77;;;1.98;;
74900;SDS011;63461;51.416;6.758;2023-09-19T01:02:34;15.30;;;2.78;;
74900;SDS011;63461;51.416;6.758;2023-09-19T01:05:01;14.85;;;2.22;;
74900;SDS011;63461;51.416;6.758;2023-09-19T01:07:29;11.45;;;1.80;;
74900;SDS011;63461;51.416;6.758;2023-09-19T01:09:57;17.58;;;2.40;;
74900;SDS011;63461;51.416;6.758;2023-09-19T01:12:34;8.88;;;2.00;;
74900;SDS011;63461;51.416;6.758;2023-09-19T01:20:53;12.73;;;2.10;;
74900;SDS011;63461;51.416;6.758;2023-09-19T01:29:23;7.55;;;1.50;;
74900;SDS011;63461;51.416;6.758;2023-09-19T01:32:05;8.32;;;1.60;;
74900;SDS011;63461;51.416;6.758;2023-09-19T01:34:55;10.18;;;2.15;;
74900;SDS011;63461;51.416;6.758;2023-09-19T01:37:29;12.55;;;2.10;;
74900;SDS011;63461;51.416;6.758;2023-09-19T01:39:57;15.35;;;2.05;;
74900;SDS011;63461;51.416;6.758;2023-09-19T01:42:44;8.52;;;1.83;;
74900;SDS011;63461;51.416;6.758;2023-09-19T01:51:11;9.85;;;1.90;;
74900;SDS011;63461;51.416;6.758;2023-09-19T01:56:42;11.55;;;2.45;;
74900;SDS011;63461;51.416;6.758;2023-09-19T01:59:17;11.32;;;2.20;;
74900;SDS011;63461;51.416;6.758;2023-09-19T02:01:49;9.65;;;2.38;;
74900;SDS011;63461;51.416;6.758;2023-09-19T02:04:17;13.82;;;2.30;;
74900;SDS011;63461;51.416;6.758;2023-09-19T02:06:43;13.02;;;1.88;;
74900;SDS011;63461;51.416;6.758;2023-09-19T02:09:13;10.52;;;2.22;;
74900;SDS011;63461;51.416;6.758;2023-09-19T02:11:42;9.70;;;2.08;;
74900;SDS011;63461;51.416;6.758;2023-09-19T02:14:08;9.18;;;1.70;;
74900;SDS011;63461;51.416;6.758;2023-09-19T02:16:34;8.85;;;2.20;;
74900;SDS011;63461;51.416;6.758;2023-09-19T02:19:00;9.23;;;1.83;;
74900;SDS011;63461;51.416;6.758;2023-09-19T02:21:30;11.10;;;1.73;;
74900;SDS011;63461;51.416;6.758;2023-09-19T02:23:57;11.20;;;1.90;;
74900;SDS011;63461;51.416;6.758;2023-09-19T02:26:24;10.65;;;2.00;;
74900;SDS011;63461;51.416;6.758;2023-09-19T02:28:50;13.50;;;2.03;;
74900;SDS011;63461;51.416;6.758;2023-09-19T02:31:16;10.68;;;2.50;;
74900;SDS011;63461;51.416;6.758;2023-09-19T02:33:42;9.40;;;1.92;;
74900;SDS011;63461;51.416;6.758;2023-09-19T02:36:08;10.20;;;2.45;;
74900;SDS011;63461;51.416;6.758;2023-09-19T02:38:35;11.35;;;2.33;;
74900;SDS011;63461;51.416;6.758;2023-09-19T02:41:02;9.80;;;1.98;;
74900;SDS011;63461;51.416;6.758;2023-09-19T02:43:28;8.50;;;1.80;;
74900;SDS011;63461;51.416;6.758;2023-09-19T02:45:54;9.93;;;2.00;;
74900;SDS011;63461;51.416;6.758;2023-09-19T02:48:20;12.27;;;2.60;;
74900;SDS011;63461;51.416;6.758;2023-09-19T02:50:49;11.43;;;2.47;;
74900;SDS011;63461;51.416;6.758;2023-09-19T02:53:15;14.20;;;2.35;;
74900;SDS011;63461;51.416;6.758;2023-09-19T02:55:41;10.43;;;2.20;;
74900;SDS011;63461;51.416;6.758;2023-09-19T02:58:08;9.45;;;2.03;;
74900;SDS011;63461;51.416;6.758;2023-09-19T03:00:36;9.38;;;1.80;;
74900;SDS011;63461;51.416;6.758;2023-09-19T03:03:03;12.18;;;2.35;;
74900;SDS011;63461;51.416;6.758;2023-09-19T03:05:30;10.45;;;1.85;;
74900;SDS011;63461;51.416;6.758;2023-09-19T03:07:57;14.38;;;2.13;;
74900;SDS011;63461;51.416;6.758;2023-09-19T03:10:26;13.45;;;2.60;;
74900;SDS011;63461;51.416;6.758;2023-09-19T03:12:54;13.60;;;2.50;;
74900;SDS011;63461;51.416;6.758;2023-09-19T03:15:20;9.57;;;2.05;;
74900;SDS011;63461;51.416;6.758;2023-09-19T03:17:49;10.85;;;2.00;;
74900;SDS011;63461;51.416;6.758;2023-09-19T03:20:19;9.80;;;2.05;;
74900;SDS011;63461;51.416;6.758;2023-09-19T03:22:47;8.68;;;2.00;;
74900;SDS011;63461;51.416;6.758;2023-09-19T03:25:14;12.10;;;1.90;;
74900;SDS011;63461;51.416;6.758;2023-09-19T03:27:42;11.73;;;2.00;;
74900;SDS011;63461;51.416;6.758;2023-09-19T03:30:09;8.15;;;2.00;;
74900;SDS011;63461;51.416;6.758;2023-09-19T03:32:45;8.75;;;1.90;;
74900;SDS011;63461;51.416;6.758;2023-09-19T03:35:13;11.70;;;1.95;;
74900;SDS011;63461;51.416;6.758;2023-09-19T03:37:40;14.82;;;2.25;;
74900;SDS011;63461;51.416;6.758;2023-09-19T03:40:10;13.15;;;2.40;;
74900;SDS011;63461;51.416;6.758;2023-09-19T03:42:40;7.85;;;1.92;;
74900;SDS011;63461;51.416;6.758;2023-09-19T03:45:09;15.82;;;2.40;;
74900;SDS011;63461;51.416;6.758;2023-09-19T03:47:38;12.20;;;1.98;;
74900;SDS011;63461;51.416;6.758;2023-09-19T03:50:05;10.77;;;2.22;;
74900;SDS011;63461;51.416;6.758;2023-09-19T03:52:36;10.55;;;2.17;;
74900;SDS011;63461;51.416;6.758;2023-09-19T03:55:02;15.07;;;2.10;;
74900;SDS011;63461;51.416;6.758;2023-09-19T03:57:29;8.10;;;1.75;;
74900;SDS011;63461;51.416;6.758;2023-09-19T04:00:01;10.40;;;2.03;;
74900;SDS011;63461;51.416;6.758;2023-09-19T04:02:39;7.55;;;1.67;;
74900;SDS011;63461;51.416;6.758;2023-09-19T04:05:06;13.23;;;1.98;;
74900;SDS011;63461;51.416;6.758;2023-09-19T04:07:32;10.82;;;3.08;;
74900;SDS011;63461;51.416;6.758;2023-09-19T04:09:59;12.60;;;2.17;;
74900;SDS011;63461;51.416;6.758;2023-09-19T04:12:26;8.70;;;2.00;;
74900;SDS011;63461;51.416;6.758;2023-09-19T04:14:52;11.35;;;1.90;;
74900;SDS011;63461;51.416;6.758;2023-09-19T04:17:18;10.02;;;1.83;;
74900;SDS011;63461;51.416;6.758;2023-09-19T04:19:44;10.85;;;2.03;;
74900;SDS011;63461;51.416;6.758;2023-09-19T04:22:11;10.48;;;2.15;;
74900;SDS011;63461;51.416;6.758;2023-09-19T04:24:38;9.13;;;2.28;;
74900;SDS011;63461;51.416;6.758;2023-09-19T04:27:04;11.07;;;2.17;;
74900;SDS011;63461;51.416;6.758;2023-09-19T04:29:30;6.30;;;1.77;;
74900;SDS011;63461;51.416;6.758;2023-09-19T04:31:56;8.32;;;2.13;;
74900;SDS011;63461;51.416;6.758;2023-09-19T04:34:25;9.93;;;1.80;;
74900;SDS011;63461;51.416;6.758;2023-09-19T04:36:50;12.55;;;2.63;;
74900;SDS011;63461;51.416;6.758;2023-09-19T04:39:16;9.95;;;1.95;;
74900;SDS011;63461;51.416;6.758;2023-09-19T04:41:43;10.90;;;2.50;;
74900;SDS011;63461;51.416;6.758;2023-09-19T04:44:10;13.88;;;1.98;;
74900;SDS011;63461;51.416;6.758;2023-09-19T04:46:36;13.13;;;2.22;;
74900;SDS011;63461;51.416;6.758;2023-09-19T04:49:01;9.45;;;2.15;;
74900;SDS011;63461;51.416;6.758;2023-09-19T04:51:30;9.07;;;2.10;;
74900;SDS011;63461;51.416;6.758;2023-09-19T04:53:59;8.23;;;2.00;;
74900;SDS011;63461;51.416;6.758;2023-09-19T04:56:25;10.02;;;2.30;;
74900;SDS011;63461;51.416;6.758;2023-09-19T04:58:53;12.35;;;2.25;;
74900;SDS011;63461;51.416;6.758;2023-09-19T05:01:19;11.25;;;1.88;;
74900;SDS011;63461;51.416;6.758;2023-09-19T05:03:47;12.32;;;2.38;;
74900;SDS011;63461;51.416;6.758;2023-09-19T05:06:17;17.23;;;2.53;;
74900;SDS011;63461;51.416;6.758;2023-09-19T05:08:46;11.35;;;2.10;;
74900;SDS011;63461;51.416;6.758;2023-09-19T05:11:17;9.88;;;2.20;;
74900;SDS011;63461;51.416;6.758;2023-09-19T05:13:47;14.40;;;2.13;;
74900;SDS011;63461;51.416;6.758;2023-09-19T05:16:15;11.98;;;2.30;;
74900;SDS011;63461;51.416;6.758;2023-09-19T05:18:41;9.48;;;2.10;;
74900;SDS011;63461;51.416;6.758;2023-09-19T05:21:07;12.73;;;2.15;;
74900;SDS011;63461;51.416;6.758;2023-09-19T05:23:33;10.32;;;1.80;;
74900;SDS011;63461;51.416;6.758;2023-09-19T05:25:59;11.48;;;2.75;;
74900;SDS011;63461;51.416;6.758;2023-09-19T05:28:25;11.73;;;1.95;;
74900;SDS011;63461;51.416;6.758;2023-09-19T05:30:52;12.85;;;2.47;;
74900;SDS011;63461;51.416;6.758;2023-09-19T05:33:18;13.90;;;1.88;;
74900;SDS011;63461;51.416;6.758;2023-09-19T05:35:45;13.05;;;2.15;;
74900;SDS011;63461;51.416;6.758;2023-09-19T05:38:13;13.68;;;2.45;;
74900;SDS011;63461;51.416;6.758;2023-09-19T05:40:39;8.95;;;2.13;;
74900;SDS011;63461;51.416;6.758;2023-09-19T05:43:08;9.85;;;2.10;;
74900;SDS011;63461;51.416;6.758;2023-09-19T05:45:34;12.88;;;2.70;;
74900;SDS011;63461;51.416;6.758;2023-09-19T05:48:11;13.55;;;2.30;;
74900;SDS011;63461;51.416;6.758;2023-09-19T05:50:42;13.88;;;2.00;;
74900;SDS011;63461;51.416;6.758;2023-09-19T05:53:08;7.32;;;1.90;;
74900;SDS011;63461;51.416;6.758;2023-09-19T05:55:37;10.43;;;2.58;;
74900;SDS011;63461;51.416;6.758;2023-09-19T05:58:04;15.98;;;2.20;;
74900;SDS011;63461;51.416;6.758;2023-09-19T06:00:30;8.40;;;1.95;;
74900;SDS011;63461;51.416;6.758;2023-09-19T06:02:57;8.82;;;2.15;;
74900;SDS011;63461;51.416;6.758;2023-09-19T06:05:24;11.68;;;1.83;;
74900;SDS011;63461;51.416;6.758;2023-09-19T06:07:55;12.55;;;2.28;;
74900;SDS011;63461;51.416;6.758;2023-09-19T06:10:25;11.02;;;2.42;;
74900;SDS011;63461;51.416;6.758;2023-09-19T06:12:53;14.45;;;1.92;;
74900;SDS011;63461;51.416;6.758;2023-09-19T06:15:20;7.97;;;1.50;;
74900;SDS011;63461;51.416;6.758;2023-09-19T06:17:53;14.13;;;1.70;;
74900;SDS011;63461;51.416;6.758;2023-09-19T06:20:23;14.10;;;2.20;;
74900;SDS011;63461;51.416;6.758;2023-09-19T06:22:50;13.90;;;1.90;;
74900;SDS011;63461;51.416;6.758;2023-09-19T06:25:17;14.90;;;2.40;;
74900;SDS011;63461;51.416;6.758;2023-09-19T06:27:50;15.75;;;2.45;;
74900;SDS011;63461;51.416;6.758;2023-09-19T06:30:19;18.08;;;2.70;;
74900;SDS011;63461;51.416;6.758;2023-09-19T06:32:45;14.00;;;2.05;;
74900;SDS011;63461;51.416;6.758;2023-09-19T06:35:12;9.23;;;2.47;;
74900;SDS011;63461;51.416;6.758;2023-09-19T06:37:39;9.75;;;2.10;;
74900;SDS011;63461;51.416;6.758;2023-09-19T06:40:09;11.40;;;1.92;;
74900;SDS011;63461;51.416;6.758;2023-09-19T06:42:45;9.15;;;3.05;;
74900;SDS011;63461;51.416;6.758;2023-09-19T06:45:13;14.38;;;2.63;;
74900;SDS011;63461;51.416;6.758;2023-09-19T06:47:44;12.55;;;2.78;;
74900;SDS011;63461;51.416;6.758;2023-09-19T06:50:17;11.63;;;2.63;;
74900;SDS011;63461;51.416;6.758;2023-09-19T06:52:45;10.57;;;2.35;;
74900;SDS011;63461;51.416;6.758;2023-09-19T06:55:15;15.07;;;2.58;;
74900;SDS011;63461;51.416;6.758;2023-09-19T06:57:42;13.70;;;2.88;;
74900;SDS011;63461;51.416;6.758;2023-09-19T07:00:11;10.02;;;2.45;;
74900;SDS011;63461;51.416;6.758;2023-09-19T07:02:44;8.65;;;2.38;;
74900;SDS011;63461;51.416;6.758;2023-09-19T07:05:10;14.05;;;2.13;;
74900;SDS011;63461;51.416;6.758;2023-09-19T07:07:36;11.90;;;2.25;;
74900;SDS011;63461;51.416;6.758;2023-09-19T07:10:03;9.85;;;2.05;;
74900;SDS011;63461;51.416;6.758;2023-09-19T07:12:33;14.52;;;2.08;;
74900;SDS011;63461;51.416;6.758;2023-09-19T07:14:58;14.32;;;2.70;;
74900;SDS011;63461;51.416;6.758;2023-09-19T07:17:25;8.23;;;2.08;;
74900;SDS011;63461;51.416;6.758;2023-09-19T07:19:51;11.98;;;2.10;;
74900;SDS011;63461;51.416;6.758;2023-09-19T07:22:17;12.23;;;2.20;;
74900;SDS011;63461;51.416;6.758;2023-09-19T07:24:42;13.97;;;3.30;;
74900;SDS011;63461;51.416;6.758;2023-09-19T07:27:08;15.07;;;2.42;;
74900;SDS011;63461;51.416;6.758;2023-09-19T07:29:34;10.43;;;2.35;;
74900;SDS011;63461;51.416;6.758;2023-09-19T07:32:00;13.80;;;2.53;;
74900;SDS011;63461;51.416;6.758;2023-09-19T07:34:29;8.18;;;2.00;;
74900;SDS011;63461;51.416;6.758;2023-09-19T07:36:55;9.18;;;2.50;;
74900;SDS011;63461;51.416;6.758;2023-09-19T07:39:20;11.40;;;2.25;;
74900;SDS011;63461;51.416;6.758;2023-09-19T07:41:46;17.50;;;2.80;;
74900;SDS011;63461;51.416;6.758;2023-09-19T07:44:14;10.68;;;2.42;;
74900;SDS011;63461;51.416;6.758;2023-09-19T07:46:43;9.50;;;1.73;;
74900;SDS011;63461;51.416;6.758;2023-09-19T07:49:13;8.25;;;1.23;;
74900;SDS011;63461;51.416;6.758;2023-09-19T07:51:38;13.52;;;2.00;;
74900;SDS011;63461;51.416;6.758;2023-09-19T07:54:05;16.45;;;2.45;;
74900;SDS011;63461;51.416;6.758;2023-09-19T07:56:31;9.80;;;2.20;;
74900;SDS011;63461;51.416;6.758;2023-09-19T07:58:57;13.10;;;2.55;;
74900;SDS011;63461;51.416;6.758;2023-09-19T08:01:24;11.55;;;1.70;;
74900;SDS011;63461;51.416;6.758;2023-09-19T08:03:52;10.82;;;2.00;;
74900;SDS011;63461;51.416;6.758;2023-09-19T08:06:18;11.18;;;2.15;;
74900;SDS011;63461;51.416;6.758;2023-09-19T08:08:45;9.20;;;2.03;;
74900;SDS011;63461;51.416;6.758;2023-09-19T08:11:11;17.25;;;2.38;;
74900;SDS011;63461;51.416;6.758;2023-09-19T08:13:41;12.98;;;2.53;;
74900;SDS011;63461;51.416;6.758;2023-09-19T08:16:10;9.15;;;1.98;;
74900;SDS011;63461;51.416;6.758;2023-09-19T08:18:37;11.35;;;1.73;;
74900;SDS011;63461;51.416;6.758;2023-09-19T08:21:06;13.40;;;2.38;;
74900;SDS011;63461;51.416;6.758;2023-09-19T08:23:36;7.72;;;1.90;;
74900;SDS011;63461;51.416;6.758;2023-09-19T08:26:06;17.63;;;2.70;;
74900;SDS011;63461;51.416;6.758;2023-09-19T08:28:37;13.30;;;2.65;;
74900;SDS011;63461;51.416;6.758;2023-09-19T08:31:06;11.35;;;2.58;;
74900;SDS011;63461;51.416;6.758;2023-09-19T08:33:36;10.48;;;2.58;;
74900;SDS011;63461;51.416;6.758;2023-09-19T08:36:03;10.45;;;1.98;;
74900;SDS011;63461;51.416;6.758;2023-09-19T08:38:33;16.75;;;2.60;;
74900;SDS011;63461;51.416;6.758;2023-09-19T08:41:00;13.27;;;2.20;;
74900;SDS011;63461;51.416;6.758;2023-09-19T08:43:26;13.32;;;1.75;;
74900;SDS011;63461;51.416;6.758;2023-09-19T08:45:56;7.22;;;1.67;;
74900;SDS011;63461;51.416;6.758;2023-09-19T08:48:41;10.30;;;2.10;;
74900;SDS011;63461;51.416;6.758;2023-09-19T08:51:18;12.80;;;1.92;;
74900;SDS011;63461;51.416;6.758;2023-09-19T08:54:03;12.20;;;2.30;;
74900;SDS011;63461;51.416;6.758;2023-09-19T08:56:32;9.45;;;1.75;;
74900;SDS011;63461;51.416;6.758;2023-09-19T08:59:03;13.90;;;2.08;;
74900;SDS011;63461;51.416;6.758;2023-09-19T09:01:33;7.38;;;1.88;;
74900;SDS011;63461;51.416;6.758;2023-09-19T09:04:03;10.23;;;1.80;;
74900;SDS011;63461;51.416;6.758;2023-09-19T09:06:34;8.25;;;1.88;;
74900;SDS011;63461;51.416;6.758;2023-09-19T09:09:04;14.00;;;2.72;;
74900;SDS011;63461;51.416;6.758;2023-09-19T09:11:40;11.32;;;1.90;;
74900;SDS011;63461;51.416;6.758;2023-09-19T09:14:07;11.68;;;1.88;;
74900;SDS011;63461;51.416;6.758;2023-09-19T09:16:33;11.50;;;2.47;;
74900;SDS011;63461;51.416;6.758;2023-09-19T09:19:05;11.02;;;2.25;;
74900;SDS011;63461;51.416;6.758;2023-09-19T09:21:31;15.30;;;2.92;;
74900;SDS011;63461;51.416;6.758;2023-09-19T09:27:19;10.45;;;2.35;;
74900;SDS011;63461;51.416;6.758;2023-09-19T09:29:49;11.27;;;2.60;;
74900;SDS011;63461;51.416;6.758;2023-09-19T09:32:17;13.18;;;2.28;;
74900;SDS011;63461;51.416;6.758;2023-09-19T09:34:56;13.82;;;2.58;;
74900;SDS011;63461;51.416;6.758;2023-09-19T09:37:24;12.40;;;2.47;;
74900;SDS011;63461;51.416;6.758;2023-09-19T09:39:52;13.30;;;1.90;;
74900;SDS011;63461;51.416;6.758;2023-09-19T09:42:44;12.38;;;1.98;;
74900;SDS011;63461;51.416;6.758;2023-09-19T09:47:59;11.60;;;2.40;;
74900;SDS011;63461;51.416;6.758;2023-09-19T09:50:29;7.88;;;2.33;;
74900;SDS011;63461;51.416;6.758;2023-09-19T09:55:57;14.43;;;2.58;;
74900;SDS011;63461;51.416;6.758;2023-09-19T09:58:49;9.98;;;2.22;;
74900;SDS011;63461;51.416;6.758;2023-09-19T10:01:20;12.52;;;2.35;;
74900;SDS011;63461;51.416;6.758;2023-09-19T10:03:52;10.63;;;2.35;;
74900;SDS011;63461;51.416;6.758;2023-09-19T10:06:22;10.50;;;2.08;;
74900;SDS011;63461;51.416;6.758;2023-09-19T10:09:02;11.77;;;2.00;;
74900;SDS011;63461;51.416;6.758;2023-09-19T10:11:43;10.88;;;1.90;;
74900;SDS011;63461;51.416;6.758;2023-09-19T10:14:11;10.15;;;1.52;;
74900;SDS011;63461;51.416;6.758;2023-09-19T10:16:45;11.32;;;2.50;;
74900;SDS011;63461;51.416;6.758;2023-09-19T10:19:15;11.57;;;2.28;;
74900;SDS011;63461;51.416;6.758;2023-09-19T10:21:48;12.90;;;2.53;;
74900;SDS011;63461;51.416;6.758;2023-09-19T10:24:16;8.23;;;2.13;;
74900;SDS011;63461;51.416;6.758;2023-09-19T10:26:45;8.18;;;1.52;;
74900;SDS011;63461;51.416;6.758;2023-09-19T10:29:13;9.98;;;2.05;;
74900;SDS011;63461;51.416;6.758;2023-09-19T10:31:42;12.68;;;1.98;;
74900;SDS011;63461;51.416;6.758;2023-09-19T10:34:15;10.63;;;2.20;;
74900;SDS011;63461;51.416;6.758;2023-09-19T10:36:46;10.85;;;1.98;;
74900;SDS011;63461;51.416;6.758;2023-09-19T10:39:15;10.48;;;1.75;;
74900;SDS011;63461;51.416;6.758;2023-09-19T10:41:51;7.65;;;1.70;;
74900;SDS011;63461;51.416;6.758;2023-09-19T10:44:23;12.93;;;1.70;;
74900;SDS011;63461;51.416;6.758;2023-09-19T10:46:53;7.43;;;2.00;;
74900;SDS011;63461;51.416;6.758;2023-09-19T10:49:20;8.10;;;1.88;;
74900;SDS011;63461;51.416;6.758;2023-09-19T10:51:47;15.20;;;1.92;;
74900;SDS011;63461;51.416;6.758;2023-09-19T10:54:20;11.77;;;2.20;;
74900;SDS011;63461;51.416;6.758;2023-09-19T10:56:52;12.23;;;1.80;;
74900;SDS011;63461;51.416;6.758;2023-09-19T10:59:19;7.63;;;1.90;;
74900;SDS011;63461;51.416;6.758;2023-09-19T11:01:50;15.10;;;2.33;;
74900;SDS011;63461;51.416;6.758;2023-09-19T11:06:59;9.05;;;2.33;;
74900;SDS011;63461;51.416;6.758;2023-09-19T11:09:25;11.38;;;2.22;;
74900;SDS011;63461;51.416;6.758;2023-09-19T11:14:58;9.05;;;2.50;;
74900;SDS011;63461;51.416;6.758;2023-09-19T11:17:30;13.23;;;2.13;;
74900;SDS011;63461;51.416;6.758;2023-09-19T11:30:50;10.65;;;1.90;;
74900;SDS011;63461;51.416;6.758;2023-09-19T11:33:27;6.10;;;1.70;;
74900;SDS011;63461;51.416;6.758;2023-09-19T11:43:52;12.55;;;2.10;;
74900;SDS011;63461;51.416;6.758;2023-09-19T11:46:24;10.93;;;2.30;;
74900;SDS011;63461;51.416;6.758;2023-09-19T11:48:51;8.65;;;1.90;;
74900;SDS011;63461;51.416;6.758;2023-09-19T11:53:54;4.03;;;1.55;;
74900;SDS011;63461;51.416;6.758;2023-09-19T11:56:26;7.57;;;1.75;;
74900;SDS011;63461;51.416;6.758;2023-09-19T11:58:57;11.82;;;2.10;;
74900;SDS011;63461;51.416;6.758;2023-09-19T12:01:32;14.93;;;2.70;;
74900;SDS011;63461;51.416;6.758;2023-09-19T12:04:00;10.25;;;2.35;;
74900;SDS011;63461;51.416;6.758;2023-09-19T12:06:28;17.95;;;3.20;;
74900;SDS011;63461;51.416;6.758;2023-09-19T12:08:55;11.00;;;3.50;;
74900;SDS011;63461;51.416;6.758;2023-09-19T12:11:27;15.70;;;2.50;;
74900;SDS011;63461;51.416;6.758;2023-09-19T12:13:55;10.98;;;2.35;;
74900;SDS011;63461;51.416;6.758;2023-09-19T12:16:31;13.98;;;2.58;;
74900;SDS011;63461;51.416;6.758;2023-09-19T12:19:24;5.13;;;1.98;;
74900;SDS011;63461;51.416;6.758;2023-09-19T12:24:27;9.07;;;2.40;;
74900;SDS011;63461;51.416;6.758;2023-09-19T12:26:56;12.50;;;2.80;;
74900;SDS011;63461;51.416;6.758;2023-09-19T12:29:32;7.68;;;2.42;;
74900;SDS011;63461;51.416;6.758;2023-09-19T12:32:11;9.02;;;2.10;;
74900;SDS011;63461;51.416;6.758;2023-09-19T12:34:38;8.57;;;1.98;;
74900;SDS011;63461;51.416;6.758;2023-09-19T12:39:49;8.77;;;2.45;;
74900;SDS011;63461;51.416;6.758;2023-09-19T12:42:20;10.00;;;2.97;;
74900;SDS011;63461;51.416;6.758;2023-09-19T12:44:51;11.23;;;2.42;;
74900;SDS011;63461;51.416;6.758;2023-09-19T12:47:24;7.97;;;2.28;;
74900;SDS011;63461;51.416;6.758;2023-09-19T12:52:47;11.48;;;2.60;;
74900;SDS011;63461;51.416;6.758;2023-09-19T12:55:24;8.93;;;2.22;;
74900;SDS011;63461;51.416;6.758;2023-09-19T12:58:07;6.68;;;1.90;;
74900;SDS011;63461;51.416;6.758;2023-09-19T13:00:41;7.03;;;2.05;;
74900;SDS011;63461;51.416;6.758;2023-09-19T13:03:14;9.23;;;2.13;;
74900;SDS011;63461;51.416;6.758;2023-09-19T13:06:02;8.65;;;2.10;;
74900;SDS011;63461;51.416;6.758;2023-09-19T13:08:37;8.40;;;2.65;;
74900;SDS011;63461;51.416;6.758;2023-09-19T13:11:04;7.45;;;2.30;;
74900;SDS011;63461;51.416;6.758;2023-09-19T13:13:32;6.88;;;2.10;;
74900;SDS011;63461;51.416;6.758;2023-09-19T13:16:01;8.93;;;1.98;;
74900;SDS011;63461;51.416;6.758;2023-09-19T13:18:29;5.95;;;1.58;;
74900;SDS011;63461;51.416;6.758;2023-09-19T13:21:06;13.90;;;2.50;;
74900;SDS011;63461;51.416;6.758;2023-09-19T13:23:37;11.27;;;2.65;;
74900;SDS011;63461;51.416;6.758;2023-09-19T13:26:03;13.18;;;2.63;;
74900;SDS011;63461;51.416;6.758;2023-09-19T13:28:31;4.78;;;1.67;;
74900;SDS011;63461;51.416;6.758;2023-09-19T13:30:58;6.82;;;2.20;;
74900;SDS011;63461;51.416;6.758;2023-09-19T13:33:24;11.00;;;2.20;;
74900;SDS011;63461;51.416;6.758;2023-09-19T13:35:51;12.02;;;2.30;;
74900;SDS011;63461;51.416;6.758;2023-09-19T13:38:21;8.10;;;2.40;;
74900;SDS011;63461;51.416;6.758;2023-09-19T13:40:48;8.20;;;2.20;;
74900;SDS011;63461;51.416;6.758;2023-09-19T13:43:15;12.90;;;2.33;;
74900;SDS011;63461;51.416;6.758;2023-09-19T13:45:41;7.53;;;1.95;;
74900;SDS011;63461;51.416;6.758;2023-09-19T13:48:08;4.45;;;1.48;;
74900;SDS011;63461;51.416;6.758;2023-09-19T13:50:37;5.50;;;1.15;;
74900;SDS011;63461;51.416;6.758;2023-09-19T13:53:07;6.32;;;1.63;;
74900;SDS011;63461;51.416;6.758;2023-09-19T13:55:37;5.88;;;1.17;;
74900;SDS011;63461;51.416;6.758;2023-09-19T13:58:03;4.55;;;1.10;;
74900;SDS011;63461;51.416;6.758;2023-09-19T14:00:32;4.78;;;1.27;;
74900;SDS011;63461;51.416;6.758;2023-09-19T14:03:00;7.10;;;1.20;;
74900;SDS011;63461;51.416;6.758;2023-09-19T14:05:27;5.05;;;1.33;;
74900;SDS011;63461;51.416;6.758;2023-09-19T14:07:53;8.38;;;1.20;;
74900;SDS011;63461;51.416;6.758;2023-09-19T14:10:24;6.93;;;1.35;;
74900;SDS011;63461;51.416;6.758;2023-09-19T14:12:55;3.65;;;1.20;;
74900;SDS011;63461;51.416;6.758;2023-09-19T14:15:23;3.88;;;1.00;;
74900;SDS011;63461;51.416;6.758;2023-09-19T14:17:55;3.28;;;0.98;;
74900;SDS011;63461;51.416;6.758;2023-09-19T14:20:21;3.35;;;0.90;;
74900;SDS011;63461;51.416;6.758;2023-09-19T14:22:48;2.50;;;0.70;;
74900;SDS011;63461;51.416;6.758;2023-09-19T14:25:14;3.33;;;1.00;;
74900;SDS011;63461;51.416;6.758;2023-09-19T14:27:40;4.32;;;1.00;;
74900;SDS011;63461;51.416;6.758;2023-09-19T14:30:06;2.75;;;1.10;;
74900;SDS011;63461;51.416;6.758;2023-09-19T14:32:34;5.60;;;1.20;;
74900;SDS011;63461;51.416;6.758;2023-09-19T14:35:01;2.67;;;0.95;;
74900;SDS011;63461;51.416;6.758;2023-09-19T14:37:27;4.80;;;1.00;;
74900;SDS011;63461;51.416;6.758;2023-09-19T14:39:53;2.90;;;0.90;;
74900;SDS011;63461;51.416;6.758;2023-09-19T14:42:19;4.00;;;1.00;;
74900;SDS011;63461;51.416;6.758;2023-09-19T14:44:45;4.35;;;1.08;;
74900;SDS011;63461;51.416;6.758;2023-09-19T14:47:13;1.45;;;0.40;;
74900;SDS011;63461;51.416;6.758;2023-09-19T14:49:39;2.47;;;0.73;;
74900;SDS011;63461;51.416;6.758;2023-09-19T14:52:07;2.28;;;0.85;;
74900;SDS011;63461;51.416;6.758;2023-09-19T14:54:33;5.93;;;1.45;;
74900;SDS011;63461;51.416;6.758;2023-09-19T14:56:59;5.93;;;1.35;;
74900;SDS011;63461;51.416;6.758;2023-09-19T14:59:34;6.05;;;1.48;;
74900;SDS011;63461;51.416;6.758;2023-09-19T15:02:06;1.45;;;0.80;;
74900;SDS011;63461;51.416;6.758;2023-09-19T15:04:32;6.05;;;1.45;;
74900;SDS011;63461;51.416;6.758;2023-09-19T15:06:59;3.58;;;1.00;;
74900;SDS011;63461;51.416;6.758;2023-09-19T15:09:25;7.03;;;1.13;;
74900;SDS011;63461;51.416;6.758;2023-09-19T15:11:52;2.90;;;1.38;;
74900;SDS011;63461;51.416;6.758;2023-09-19T15:14:18;4.07;;;1.08;;
74900;SDS011;63461;51.416;6.758;2023-09-19T15:16:44;4.22;;;0.98;;
74900;SDS011;63461;51.416;6.758;2023-09-19T15:19:10;4.10;;;1.13;;
74900;SDS011;63461;51.416;6.758;2023-09-19T15:21:36;5.32;;;0.90;;
74900;SDS011;63461;51.416;6.758;2023-09-19T15:24:02;4.40;;;1.13;;
74900;SDS011;63461;51.416;6.758;2023-09-19T15:26:30;5.18;;;1.10;;
74900;SDS011;63461;51.416;6.758;2023-09-19T15:28:55;3.70;;;0.93;;
74900;SDS011;63461;51.416;6.758;2023-09-19T15:31:22;3.65;;;1.10;;
74900;SDS011;63461;51.416;6.758;2023-09-19T15:33:48;9.82;;;1.20;;
74900;SDS011;63461;51.416;6.758;2023-09-19T15:36:14;3.20;;;0.90;;
74900;SDS011;63461;51.416;6.758;2023-09-19T15:41:39;4.65;;;1.10;;
74900;SDS011;63461;51.416;6.758;2023-09-19T15:44:16;9.32;;;1.33;;
74900;SDS011;63461;51.416;6.758;2023-09-19T15:46:45;5.30;;;1.23;;
74900;SDS011;63461;51.416;6.758;2023-09-19T15:49:11;5.30;;;1.40;;
74900;SDS011;63461;51.416;6.758;2023-09-19T15:51:38;8.10;;;1.40;;
74900;SDS011;63461;51.416;6.758;2023-09-19T15:54:12;7.63;;;1.67;;
74900;SDS011;63461;51.416;6.758;2023-09-19T15:56:39;5.60;;;1.40;;
74900;SDS011;63461;51.416;6.758;2023-09-19T15:59:08;3.67;;;1.80;;